sensor_id;sensor_type;location;lat;lon;timestamp;P1;durP1;ratioP1;P2;durP2;ratioP2
21334;SDS011;69435;52.670;13.544;2023-08-07T00:01:25;3.07;;;2.20;;
21334;SDS011;69435;52.670;13.544;2023-08-07T00:04:11;2.50;;;2.30;;
21334;SDS011;69435;52.670;13.544;2023-08-07T00:06:57;3.43;;;2.63;;
21334;SDS011;69435;52.670;13.544;2023-08-07T00:09:43;5.20;;;2.33;;
21334;SDS011;69435;52.670;13.544;2023-08-07T00:12:29;2.27;;;2.07;;
21334;SDS011;69435;52.670;13.544;2023-08-07T00:15:15;3.20;;;2.53;;
21334;SDS011;69435;52.670;13.544;2023-08-07T00:18:03;3.87;;;2.40;;
21334;SDS011;69435;52.670;13.544;2023-08-07T00:20:49;2.60;;;2.40;;
21334;SDS011;69435;52.670;13.544;2023-08-07T00:23:35;3.63;;;2.87;;
21334;SDS011;69435;52.670;13.544;2023-08-07T00:26:21;3.80;;;2.50;;
21334;SDS011;69435;52.670;13.544;2023-08-07T00:29:06;2.60;;;2.43;;
21334;SDS011;69435;52.670;13.544;2023-08-07T00:31:52;2.53;;;2.33;;
21334;SDS011;69435;52.670;13.544;2023-08-07T00:34:38;3.10;;;2.50;;
21334;SDS011;69435;52.670;13.544;2023-08-07T00:37:24;4.57;;;2.37;;
21334;SDS011;69435;52.670;13.544;2023-08-07T00:40:10;2.20;;;2.10;;
21334;SDS011;69435;52.670;13.544;2023-08-07T00:42:56;3.40;;;2.50;;
21334;SDS011;69435;52.670;13.544;2023-08-07T00:45:46;6.17;;;3.90;;
21334;SDS011;69435;52.670;13.544;2023-08-07T00:48:32;3.93;;;2.63;;
21334;SDS011;69435;52.670;13.544;2023-08-07T00:51:19;2.53;;;2.33;;
21334;SDS011;69435;52.670;13.544;2023-08-07T00:54:07;4.63;;;2.57;;
21334;SDS011;69435;52.670;13.544;2023-08-07T00:57:00;3.10;;;2.80;;
21334;SDS011;69435;52.670;13.544;2023-08-07T00:59:57;3.40;;;2.97;;
21334;SDS011;69435;52.670;13.544;2023-08-07T01:02:44;3.43;;;3.10;;
21334;SDS011;69435;52.670;13.544;2023-08-07T01:05:30;2.50;;;2.30;;
21334;SDS011;69435;52.670;13.544;2023-08-07T01:08:16;6.87;;;2.77;;
21334;SDS011;69435;52.670;13.544;2023-08-07T01:14:26;3.77;;;2.80;;
21334;SDS011;69435;52.670;13.544;2023-08-07T01:17:24;2.90;;;2.50;;
21334;SDS011;69435;52.670;13.544;2023-08-07T01:20:11;2.87;;;2.67;;
21334;SDS011;69435;52.670;13.544;2023-08-07T01:22:57;3.10;;;2.90;;
21334;SDS011;69435;52.670;13.544;2023-08-07T01:25:43;3.40;;;2.73;;
21334;SDS011;69435;52.670;13.544;2023-08-07T01:28:33;4.63;;;2.60;;
21334;SDS011;69435;52.670;13.544;2023-08-07T01:31:31;3.07;;;2.87;;
21334;SDS011;69435;52.670;13.544;2023-08-07T01:34:21;3.47;;;3.03;;
21334;SDS011;69435;52.670;13.544;2023-08-07T01:37:10;3.03;;;2.70;;
21334;SDS011;69435;52.670;13.544;2023-08-07T01:39:58;4.23;;;2.77;;
21334;SDS011;69435;52.670;13.544;2023-08-07T01:42:49;4.67;;;3.07;;
21334;SDS011;69435;52.670;13.544;2023-08-07T01:45:35;2.87;;;2.63;;
21334;SDS011;69435;52.670;13.544;2023-08-07T01:48:22;5.40;;;3.27;;
21334;SDS011;69435;52.670;13.544;2023-08-07T01:51:08;3.17;;;2.97;;
21334;SDS011;69435;52.670;13.544;2023-08-07T01:53:54;3.70;;;3.37;;
21334;SDS011;69435;52.670;13.544;2023-08-07T01:56:40;3.70;;;3.13;;
21334;SDS011;69435;52.670;13.544;2023-08-07T01:59:26;3.20;;;3.00;;
21334;SDS011;69435;52.670;13.544;2023-08-07T02:02:12;5.87;;;3.50;;
21334;SDS011;69435;52.670;13.544;2023-08-07T02:04:58;3.03;;;2.83;;
21334;SDS011;69435;52.670;13.544;2023-08-07T02:07:44;3.77;;;3.23;;
21334;SDS011;69435;52.670;13.544;2023-08-07T02:10:30;4.37;;;3.30;;
21334;SDS011;69435;52.670;13.544;2023-08-07T02:13:16;3.50;;;3.20;;
21334;SDS011;69435;52.670;13.544;2023-08-07T02:16:02;3.50;;;3.20;;
21334;SDS011;69435;52.670;13.544;2023-08-07T02:18:48;5.50;;;3.60;;
21334;SDS011;69435;52.670;13.544;2023-08-07T02:21:35;3.57;;;3.03;;
21334;SDS011;69435;52.670;13.544;2023-08-07T02:24:21;3.10;;;2.90;;
21334;SDS011;69435;52.670;13.544;2023-08-07T02:27:07;8.07;;;3.30;;
21334;SDS011;69435;52.670;13.544;2023-08-07T02:29:53;3.93;;;3.10;;
21334;SDS011;69435;52.670;13.544;2023-08-07T02:32:39;3.67;;;3.23;;
21334;SDS011;69435;52.670;13.544;2023-08-07T02:35:28;4.60;;;3.60;;
21334;SDS011;69435;52.670;13.544;2023-08-07T02:38:14;3.63;;;3.33;;
21334;SDS011;69435;52.670;13.544;2023-08-07T02:41:00;4.83;;;3.50;;
21334;SDS011;69435;52.670;13.544;2023-08-07T02:43:46;3.90;;;3.60;;
21334;SDS011;69435;52.670;13.544;2023-08-07T02:46:32;3.87;;;3.60;;
21334;SDS011;69435;52.670;13.544;2023-08-07T02:49:21;7.10;;;4.03;;
21334;SDS011;69435;52.670;13.544;2023-08-07T02:52:07;4.20;;;3.90;;
21334;SDS011;69435;52.670;13.544;2023-08-07T02:54:53;7.47;;;4.13;;
21334;SDS011;69435;52.670;13.544;2023-08-07T02:57:39;10.37;;;4.60;;
21334;SDS011;69435;52.670;13.544;2023-08-07T03:00:26;5.30;;;3.60;;
21334;SDS011;69435;52.670;13.544;2023-08-07T03:03:12;4.67;;;3.93;;
21334;SDS011;69435;52.670;13.544;2023-08-07T03:05:58;5.47;;;4.30;;
21334;SDS011;69435;52.670;13.544;2023-08-07T03:08:44;5.13;;;4.50;;
21334;SDS011;69435;52.670;13.544;2023-08-07T03:11:30;4.60;;;4.20;;
21334;SDS011;69435;52.670;13.544;2023-08-07T03:14:16;6.40;;;4.27;;
21334;SDS011;69435;52.670;13.544;2023-08-07T03:17:02;4.70;;;4.30;;
21334;SDS011;69435;52.670;13.544;2023-08-07T03:19:49;6.83;;;4.77;;
21334;SDS011;69435;52.670;13.544;2023-08-07T03:22:35;5.77;;;4.43;;
21334;SDS011;69435;52.670;13.544;2023-08-07T03:25:21;6.43;;;4.40;;
21334;SDS011;69435;52.670;13.544;2023-08-07T03:28:07;4.97;;;4.57;;
21334;SDS011;69435;52.670;13.544;2023-08-07T03:30:53;4.27;;;3.93;;
21334;SDS011;69435;52.670;13.544;2023-08-07T03:33:40;5.77;;;4.90;;
21334;SDS011;69435;52.670;13.544;2023-08-07T03:36:25;5.07;;;4.67;;
21334;SDS011;69435;52.670;13.544;2023-08-07T03:39:12;5.10;;;4.60;;
21334;SDS011;69435;52.670;13.544;2023-08-07T03:41:58;6.90;;;5.63;;
21334;SDS011;69435;52.670;13.544;2023-08-07T03:44:44;5.43;;;4.90;;
21334;SDS011;69435;52.670;13.544;2023-08-07T03:47:30;8.43;;;5.13;;
21334;SDS011;69435;52.670;13.544;2023-08-07T03:50:16;4.80;;;4.33;;
21334;SDS011;69435;52.670;13.544;2023-08-07T03:53:02;7.53;;;5.23;;
21334;SDS011;69435;52.670;13.544;2023-08-07T03:55:50;6.73;;;4.77;;
21334;SDS011;69435;52.670;13.544;2023-08-07T03:58:37;5.57;;;5.07;;
21334;SDS011;69435;52.670;13.544;2023-08-07T04:01:23;5.60;;;4.63;;
21334;SDS011;69435;52.670;13.544;2023-08-07T04:04:09;8.20;;;5.07;;
21334;SDS011;69435;52.670;13.544;2023-08-07T04:06:55;5.03;;;4.47;;
21334;SDS011;69435;52.670;13.544;2023-08-07T04:09:41;7.13;;;4.37;;
21334;SDS011;69435;52.670;13.544;2023-08-07T04:12:27;4.53;;;4.13;;
21334;SDS011;69435;52.670;13.544;2023-08-07T04:15:13;7.33;;;4.20;;
21334;SDS011;69435;52.670;13.544;2023-08-07T04:17:59;4.93;;;4.50;;
21334;SDS011;69435;52.670;13.544;2023-08-07T04:20:48;5.03;;;4.27;;
21334;SDS011;69435;52.670;13.544;2023-08-07T04:23:41;4.83;;;4.43;;
21334;SDS011;69435;52.670;13.544;2023-08-07T04:26:27;4.50;;;4.07;;
21334;SDS011;69435;52.670;13.544;2023-08-07T04:29:15;8.83;;;4.30;;
21334;SDS011;69435;52.670;13.544;2023-08-07T04:32:01;4.67;;;4.20;;
21334;SDS011;69435;52.670;13.544;2023-08-07T04:34:47;4.90;;;4.50;;
21334;SDS011;69435;52.670;13.544;2023-08-07T04:37:33;4.40;;;4.00;;
21334;SDS011;69435;52.670;13.544;2023-08-07T04:40:19;4.33;;;4.03;;
21334;SDS011;69435;52.670;13.544;2023-08-07T04:43:05;8.23;;;4.67;;
21334;SDS011;69435;52.670;13.544;2023-08-07T04:45:51;4.37;;;4.07;;
21334;SDS011;69435;52.670;13.544;2023-08-07T04:48:38;5.03;;;4.50;;
21334;SDS011;69435;52.670;13.544;2023-08-07T04:51:24;4.70;;;4.30;;
21334;SDS011;69435;52.670;13.544;2023-08-07T04:54:10;4.97;;;4.03;;
21334;SDS011;69435;52.670;13.544;2023-08-07T04:56:56;4.50;;;4.10;;
21334;SDS011;69435;52.670;13.544;2023-08-07T04:59:42;3.80;;;3.50;;
21334;SDS011;69435;52.670;13.544;2023-08-07T05:02:28;4.87;;;3.57;;
21334;SDS011;69435;52.670;13.544;2023-08-07T05:05:14;4.03;;;3.57;;
21334;SDS011;69435;52.670;13.544;2023-08-07T05:08:01;4.17;;;3.87;;
21334;SDS011;69435;52.670;13.544;2023-08-07T05:10:47;3.80;;;3.50;;
21334;SDS011;69435;52.670;13.544;2023-08-07T05:13:33;4.17;;;3.77;;
21334;SDS011;69435;52.670;13.544;2023-08-07T05:16:19;4.57;;;3.37;;
21334;SDS011;69435;52.670;13.544;2023-08-07T05:19:05;5.70;;;3.40;;
21334;SDS011;69435;52.670;13.544;2023-08-07T05:21:51;3.30;;;3.10;;
21334;SDS011;69435;52.670;13.544;2023-08-07T05:24:37;4.67;;;3.13;;
21334;SDS011;69435;52.670;13.544;2023-08-07T05:27:27;6.37;;;3.30;;
21334;SDS011;69435;52.670;13.544;2023-08-07T05:30:14;3.13;;;2.93;;
21334;SDS011;69435;52.670;13.544;2023-08-07T05:33:00;3.50;;;3.20;;
21334;SDS011;69435;52.670;13.544;2023-08-07T05:35:46;5.90;;;3.10;;
21334;SDS011;69435;52.670;13.544;2023-08-07T05:38:32;2.70;;;2.50;;
21334;SDS011;69435;52.670;13.544;2023-08-07T05:41:18;3.17;;;2.97;;
21334;SDS011;69435;52.670;13.544;2023-08-07T05:44:04;5.47;;;3.33;;
21334;SDS011;69435;52.670;13.544;2023-08-07T05:46:50;3.43;;;3.17;;
21334;SDS011;69435;52.670;13.544;2023-08-07T05:49:37;4.90;;;3.13;;
21334;SDS011;69435;52.670;13.544;2023-08-07T05:52:23;4.50;;;3.60;;
21334;SDS011;69435;52.670;13.544;2023-08-07T05:55:09;3.87;;;3.00;;
21334;SDS011;69435;52.670;13.544;2023-08-07T05:57:56;5.93;;;3.23;;
21334;SDS011;69435;52.670;13.544;2023-08-07T06:00:42;6.93;;;3.30;;
21334;SDS011;69435;52.670;13.544;2023-08-07T06:03:28;3.03;;;2.77;;
21334;SDS011;69435;52.670;13.544;2023-08-07T06:06:14;4.63;;;3.20;;
21334;SDS011;69435;52.670;13.544;2023-08-07T06:09:01;3.10;;;2.80;;
21334;SDS011;69435;52.670;13.544;2023-08-07T06:11:48;3.77;;;2.80;;
21334;SDS011;69435;52.670;13.544;2023-08-07T06:14:34;2.47;;;2.33;;
21334;SDS011;69435;52.670;13.544;2023-08-07T06:17:23;4.23;;;2.97;;
21334;SDS011;69435;52.670;13.544;2023-08-07T06:20:10;3.17;;;2.77;;
21334;SDS011;69435;52.670;13.544;2023-08-07T06:22:57;3.40;;;2.47;;
21334;SDS011;69435;52.670;13.544;2023-08-07T06:25:44;3.60;;;2.90;;
21334;SDS011;69435;52.670;13.544;2023-08-07T06:28:30;2.97;;;2.67;;
21334;SDS011;69435;52.670;13.544;2023-08-07T06:31:20;3.90;;;2.30;;
21334;SDS011;69435;52.670;13.544;2023-08-07T06:34:06;2.40;;;2.20;;
21334;SDS011;69435;52.670;13.544;2023-08-07T06:36:52;3.03;;;2.23;;
21334;SDS011;69435;52.670;13.544;2023-08-07T06:39:38;2.63;;;2.43;;
21334;SDS011;69435;52.670;13.544;2023-08-07T06:42:24;3.70;;;2.17;;
21334;SDS011;69435;52.670;13.544;2023-08-07T06:45:10;2.60;;;2.40;;
21334;SDS011;69435;52.670;13.544;2023-08-07T06:47:56;2.57;;;2.33;;
21334;SDS011;69435;52.670;13.544;2023-08-07T06:50:42;2.20;;;2.00;;
21334;SDS011;69435;52.670;13.544;2023-08-07T06:53:28;2.00;;;1.90;;
21334;SDS011;69435;52.670;13.544;2023-08-07T06:56:14;4.23;;;1.90;;
21334;SDS011;69435;52.670;13.544;2023-08-07T06:59:00;2.10;;;2.00;;
21334;SDS011;69435;52.670;13.544;2023-08-07T07:01:46;2.03;;;1.93;;
21334;SDS011;69435;52.670;13.544;2023-08-07T07:04:33;2.33;;;1.90;;
21334;SDS011;69435;52.670;13.544;2023-08-07T07:07:19;2.63;;;2.00;;
21334;SDS011;69435;52.670;13.544;2023-08-07T07:10:05;8.17;;;1.73;;
21334;SDS011;69435;52.670;13.544;2023-08-07T07:12:53;1.93;;;1.83;;
21334;SDS011;69435;52.670;13.544;2023-08-07T07:15:39;2.70;;;1.70;;
21334;SDS011;69435;52.670;13.544;2023-08-07T07:18:25;2.27;;;1.63;;
21334;SDS011;69435;52.670;13.544;2023-08-07T07:21:11;1.80;;;1.70;;
21334;SDS011;69435;52.670;13.544;2023-08-07T07:23:57;4.60;;;1.70;;
21334;SDS011;69435;52.670;13.544;2023-08-07T07:26:43;3.53;;;1.90;;
21334;SDS011;69435;52.670;13.544;2023-08-07T07:29:29;2.13;;;1.97;;
21334;SDS011;69435;52.670;13.544;2023-08-07T07:32:15;1.77;;;1.50;;
21334;SDS011;69435;52.670;13.544;2023-08-07T07:35:01;2.30;;;1.60;;
21334;SDS011;69435;52.670;13.544;2023-08-07T07:37:47;1.93;;;1.83;;
21334;SDS011;69435;52.670;13.544;2023-08-07T07:40:36;1.83;;;1.50;;
21334;SDS011;69435;52.670;13.544;2023-08-07T07:43:23;2.83;;;1.70;;
21334;SDS011;69435;52.670;13.544;2023-08-07T07:46:09;3.93;;;2.10;;
21334;SDS011;69435;52.670;13.544;2023-08-07T07:48:55;2.67;;;1.53;;
21334;SDS011;69435;52.670;13.544;2023-08-07T07:51:42;2.23;;;1.90;;
21334;SDS011;69435;52.670;13.544;2023-08-07T07:54:29;2.87;;;2.60;;
21334;SDS011;69435;52.670;13.544;2023-08-07T07:57:15;6.53;;;3.30;;
21334;SDS011;69435;52.670;13.544;2023-08-07T08:00:01;2.87;;;1.77;;
21334;SDS011;69435;52.670;13.544;2023-08-07T08:02:50;1.70;;;1.60;;
21334;SDS011;69435;52.670;13.544;2023-08-07T08:05:36;3.80;;;1.60;;
21334;SDS011;69435;52.670;13.544;2023-08-07T08:08:22;1.23;;;1.23;;
21334;SDS011;69435;52.670;13.544;2023-08-07T08:11:08;3.40;;;1.50;;
21334;SDS011;69435;52.670;13.544;2023-08-07T08:13:54;2.20;;;1.50;;
21334;SDS011;69435;52.670;13.544;2023-08-07T08:16:40;1.73;;;1.27;;
21334;SDS011;69435;52.670;13.544;2023-08-07T08:19:26;1.43;;;1.33;;
21334;SDS011;69435;52.670;13.544;2023-08-07T08:22:12;5.00;;;1.60;;
21334;SDS011;69435;52.670;13.544;2023-08-07T08:24:58;1.70;;;1.33;;
21334;SDS011;69435;52.670;13.544;2023-08-07T08:27:44;1.50;;;1.40;;
21334;SDS011;69435;52.670;13.544;2023-08-07T08:30:30;4.17;;;1.70;;
21334;SDS011;69435;52.670;13.544;2023-08-07T08:33:16;1.73;;;1.40;;
21334;SDS011;69435;52.670;13.544;2023-08-07T08:36:03;4.37;;;1.80;;
21334;SDS011;69435;52.670;13.544;2023-08-07T08:38:49;1.77;;;1.57;;
21334;SDS011;69435;52.670;13.544;2023-08-07T08:41:36;4.60;;;1.60;;
21334;SDS011;69435;52.670;13.544;2023-08-07T08:44:23;3.40;;;1.80;;
21334;SDS011;69435;52.670;13.544;2023-08-07T08:47:11;1.70;;;1.60;;
21334;SDS011;69435;52.670;13.544;2023-08-07T08:50:04;4.67;;;1.60;;
21334;SDS011;69435;52.670;13.544;2023-08-07T08:52:57;1.93;;;1.70;;
21334;SDS011;69435;52.670;13.544;2023-08-07T08:55:45;1.87;;;1.70;;
21334;SDS011;69435;52.670;13.544;2023-08-07T08:58:32;2.57;;;1.73;;
21334;SDS011;69435;52.670;13.544;2023-08-07T09:01:19;1.90;;;1.80;;
21334;SDS011;69435;52.670;13.544;2023-08-07T09:04:06;2.00;;;1.90;;
21334;SDS011;69435;52.670;13.544;2023-08-07T09:06:52;1.70;;;1.60;;
21334;SDS011;69435;52.670;13.544;2023-08-07T09:09:38;2.27;;;1.77;;
21334;SDS011;69435;52.670;13.544;2023-08-07T09:12:26;1.90;;;1.73;;
21334;SDS011;69435;52.670;13.544;2023-08-07T09:15:17;2.00;;;1.60;;
21334;SDS011;69435;52.670;13.544;2023-08-07T09:18:07;2.03;;;1.53;;
21334;SDS011;69435;52.670;13.544;2023-08-07T09:20:54;3.47;;;1.50;;
21334;SDS011;69435;52.670;13.544;2023-08-07T09:23:42;3.93;;;1.53;;
21334;SDS011;69435;52.670;13.544;2023-08-07T09:26:28;1.80;;;1.40;;
21334;SDS011;69435;52.670;13.544;2023-08-07T09:29:21;1.70;;;1.60;;
21334;SDS011;69435;52.670;13.544;2023-08-07T09:32:08;3.27;;;1.60;;
21334;SDS011;69435;52.670;13.544;2023-08-07T09:34:57;1.63;;;1.53;;
21334;SDS011;69435;52.670;13.544;2023-08-07T09:37:44;1.80;;;1.70;;
21334;SDS011;69435;52.670;13.544;2023-08-07T09:40:30;3.53;;;1.60;;
21334;SDS011;69435;52.670;13.544;2023-08-07T09:43:20;1.47;;;1.37;;
21334;SDS011;69435;52.670;13.544;2023-08-07T09:46:10;2.30;;;1.40;;
21334;SDS011;69435;52.670;13.544;2023-08-07T09:48:57;4.90;;;1.80;;
21334;SDS011;69435;52.670;13.544;2023-08-07T09:51:45;2.57;;;1.43;;
21334;SDS011;69435;52.670;13.544;2023-08-07T09:54:33;1.70;;;1.60;;
21334;SDS011;69435;52.670;13.544;2023-08-07T09:57:20;2.77;;;1.37;;
21334;SDS011;69435;52.670;13.544;2023-08-07T10:00:07;2.00;;;1.83;;
21334;SDS011;69435;52.670;13.544;2023-08-07T10:02:57;2.30;;;1.70;;
21334;SDS011;69435;52.670;13.544;2023-08-07T10:05:44;2.27;;;1.80;;
21334;SDS011;69435;52.670;13.544;2023-08-07T10:08:31;1.87;;;1.60;;
21334;SDS011;69435;52.670;13.544;2023-08-07T10:11:21;1.80;;;1.70;;
21334;SDS011;69435;52.670;13.544;2023-08-07T10:14:08;3.83;;;1.87;;
21334;SDS011;69435;52.670;13.544;2023-08-07T10:16:54;3.37;;;2.23;;
21334;SDS011;69435;52.670;13.544;2023-08-07T10:19:41;2.10;;;1.67;;
21334;SDS011;69435;52.670;13.544;2023-08-07T10:22:27;2.60;;;1.80;;
21334;SDS011;69435;52.670;13.544;2023-08-07T10:25:16;2.77;;;1.30;;
21334;SDS011;69435;52.670;13.544;2023-08-07T10:28:08;1.57;;;1.43;;
21334;SDS011;69435;52.670;13.544;2023-08-07T10:30:58;1.30;;;1.20;;
21334;SDS011;69435;52.670;13.544;2023-08-07T10:33:45;1.77;;;1.67;;
21334;SDS011;69435;52.670;13.544;2023-08-07T10:36:32;3.00;;;1.80;;
21334;SDS011;69435;52.670;13.544;2023-08-07T10:39:24;1.73;;;1.60;;
21334;SDS011;69435;52.670;13.544;2023-08-07T10:42:10;2.23;;;1.70;;
21334;SDS011;69435;52.670;13.544;2023-08-07T10:45:00;1.73;;;1.20;;
21334;SDS011;69435;52.670;13.544;2023-08-07T10:47:56;2.50;;;1.50;;
21334;SDS011;69435;52.670;13.544;2023-08-07T10:51:02;1.20;;;1.20;;
21334;SDS011;69435;52.670;13.544;2023-08-07T10:53:49;1.30;;;1.20;;
21334;SDS011;69435;52.670;13.544;2023-08-07T10:56:37;2.17;;;1.50;;
21334;SDS011;69435;52.670;13.544;2023-08-07T10:59:29;1.50;;;1.30;;
21334;SDS011;69435;52.670;13.544;2023-08-07T11:02:21;2.77;;;1.53;;
21334;SDS011;69435;52.670;13.544;2023-08-07T11:05:16;3.13;;;1.10;;
21334;SDS011;69435;52.670;13.544;2023-08-07T11:08:03;3.97;;;2.20;;
21334;SDS011;69435;52.670;13.544;2023-08-07T11:10:50;2.50;;;1.70;;
21334;SDS011;69435;52.670;13.544;2023-08-07T11:13:37;1.60;;;1.50;;
21334;SDS011;69435;52.670;13.544;2023-08-07T11:16:23;4.10;;;1.80;;
21334;SDS011;69435;52.670;13.544;2023-08-07T11:19:11;1.97;;;1.63;;
21334;SDS011;69435;52.670;13.544;2023-08-07T11:22:02;1.63;;;1.53;;
21334;SDS011;69435;52.670;13.544;2023-08-07T11:24:49;2.57;;;1.77;;
21334;SDS011;69435;52.670;13.544;2023-08-07T11:27:36;3.37;;;1.30;;
21334;SDS011;69435;52.670;13.544;2023-08-07T11:30:22;2.20;;;1.73;;
21334;SDS011;69435;52.670;13.544;2023-08-07T11:33:08;5.67;;;1.80;;
21334;SDS011;69435;52.670;13.544;2023-08-07T11:35:54;3.80;;;2.23;;
21334;SDS011;69435;52.670;13.544;2023-08-07T11:38:41;1.97;;;1.67;;
21334;SDS011;69435;52.670;13.544;2023-08-07T11:41:31;4.53;;;1.93;;
21334;SDS011;69435;52.670;13.544;2023-08-07T11:44:17;5.57;;;1.93;;
21334;SDS011;69435;52.670;13.544;2023-08-07T11:47:03;4.37;;;1.87;;
21334;SDS011;69435;52.670;13.544;2023-08-07T11:49:50;4.03;;;1.73;;
21334;SDS011;69435;52.670;13.544;2023-08-07T11:52:37;1.77;;;1.50;;
21334;SDS011;69435;52.670;13.544;2023-08-07T11:55:25;1.20;;;1.10;;
21334;SDS011;69435;52.670;13.544;2023-08-07T11:58:13;2.27;;;1.60;;
21334;SDS011;69435;52.670;13.544;2023-08-07T12:01:02;8.07;;;1.90;;
21334;SDS011;69435;52.670;13.544;2023-08-07T12:03:57;3.33;;;1.40;;
21334;SDS011;69435;52.670;13.544;2023-08-07T12:06:56;4.37;;;1.73;;
21334;SDS011;69435;52.670;13.544;2023-08-07T12:09:42;3.60;;;1.77;;
21334;SDS011;69435;52.670;13.544;2023-08-07T12:12:28;2.57;;;1.57;;
21334;SDS011;69435;52.670;13.544;2023-08-07T12:15:22;2.30;;;1.40;;
21334;SDS011;69435;52.670;13.544;2023-08-07T12:18:08;3.97;;;1.60;;
21334;SDS011;69435;52.670;13.544;2023-08-07T12:20:58;2.97;;;1.90;;
21334;SDS011;69435;52.670;13.544;2023-08-07T12:23:47;8.77;;;1.83;;
21334;SDS011;69435;52.670;13.544;2023-08-07T12:26:34;3.13;;;1.57;;
21334;SDS011;69435;52.670;13.544;2023-08-07T12:29:20;2.50;;;1.40;;
21334;SDS011;69435;52.670;13.544;2023-08-07T12:32:06;2.97;;;1.73;;
21334;SDS011;69435;52.670;13.544;2023-08-07T12:34:52;2.10;;;1.60;;
21334;SDS011;69435;52.670;13.544;2023-08-07T12:37:39;3.77;;;1.63;;
21334;SDS011;69435;52.670;13.544;2023-08-07T12:40:25;3.00;;;1.80;;
21334;SDS011;69435;52.670;13.544;2023-08-07T12:43:11;3.00;;;1.67;;
21334;SDS011;69435;52.670;13.544;2023-08-07T12:45:59;2.77;;;1.50;;
21334;SDS011;69435;52.670;13.544;2023-08-07T12:48:45;3.67;;;1.70;;
21334;SDS011;69435;52.670;13.544;2023-08-07T12:51:31;5.23;;;1.90;;
21334;SDS011;69435;52.670;13.544;2023-08-07T12:54:17;3.40;;;1.93;;
21334;SDS011;69435;52.670;13.544;2023-08-07T12:57:03;3.27;;;1.80;;
21334;SDS011;69435;52.670;13.544;2023-08-07T12:59:49;4.10;;;2.10;;
21334;SDS011;69435;52.670;13.544;2023-08-07T13:02:35;4.13;;;1.47;;
21334;SDS011;69435;52.670;13.544;2023-08-07T13:05:21;1.93;;;1.50;;
21334;SDS011;69435;52.670;13.544;2023-08-07T13:08:08;1.90;;;1.57;;
21334;SDS011;69435;52.670;13.544;2023-08-07T13:10:54;1.97;;;1.60;;
21334;SDS011;69435;52.670;13.544;2023-08-07T13:13:40;4.33;;;1.80;;
21334;SDS011;69435;52.670;13.544;2023-08-07T13:16:26;2.63;;;1.80;;
21334;SDS011;69435;52.670;13.544;2023-08-07T13:19:12;4.43;;;2.00;;
21334;SDS011;69435;52.670;13.544;2023-08-07T13:21:58;5.27;;;2.20;;
21334;SDS011;69435;52.670;13.544;2023-08-07T13:24:44;5.23;;;2.33;;
21334;SDS011;69435;52.670;13.544;2023-08-07T13:27:31;4.87;;;2.27;;
21334;SDS011;69435;52.670;13.544;2023-08-07T13:30:18;4.33;;;1.77;;
21334;SDS011;69435;52.670;13.544;2023-08-07T13:33:04;4.43;;;2.00;;
21334;SDS011;69435;52.670;13.544;2023-08-07T13:35:50;5.50;;;2.37;;
21334;SDS011;69435;52.670;13.544;2023-08-07T13:38:36;6.90;;;2.30;;
21334;SDS011;69435;52.670;13.544;2023-08-07T13:41:22;4.87;;;1.87;;
21334;SDS011;69435;52.670;13.544;2023-08-07T13:44:08;5.57;;;1.73;;
21334;SDS011;69435;52.670;13.544;2023-08-07T13:46:54;2.53;;;2.13;;
21334;SDS011;69435;52.670;13.544;2023-08-07T13:49:40;7.43;;;1.67;;
21334;SDS011;69435;52.670;13.544;2023-08-07T13:52:26;3.40;;;2.13;;
21334;SDS011;69435;52.670;13.544;2023-08-07T13:55:12;4.23;;;1.90;;
21334;SDS011;69435;52.670;13.544;2023-08-07T13:57:58;7.57;;;2.13;;
21334;SDS011;69435;52.670;13.544;2023-08-07T14:00:44;4.60;;;2.10;;
21334;SDS011;69435;52.670;13.544;2023-08-07T14:03:31;4.57;;;2.50;;
21334;SDS011;69435;52.670;13.544;2023-08-07T14:06:17;6.23;;;2.57;;
21334;SDS011;69435;52.670;13.544;2023-08-07T14:09:03;3.40;;;2.00;;
21334;SDS011;69435;52.670;13.544;2023-08-07T14:11:49;3.80;;;2.10;;
21334;SDS011;69435;52.670;13.544;2023-08-07T14:14:35;4.57;;;1.90;;
21334;SDS011;69435;52.670;13.544;2023-08-07T14:17:21;2.97;;;1.93;;
21334;SDS011;69435;52.670;13.544;2023-08-07T14:20:07;9.93;;;2.10;;
21334;SDS011;69435;52.670;13.544;2023-08-07T14:22:54;4.80;;;1.70;;
21334;SDS011;69435;52.670;13.544;2023-08-07T14:25:40;4.23;;;2.20;;
21334;SDS011;69435;52.670;13.544;2023-08-07T14:28:26;3.03;;;1.80;;
21334;SDS011;69435;52.670;13.544;2023-08-07T14:31:13;4.73;;;2.00;;
21334;SDS011;69435;52.670;13.544;2023-08-07T14:33:59;4.93;;;2.23;;
21334;SDS011;69435;52.670;13.544;2023-08-07T14:36:46;4.53;;;2.07;;
21334;SDS011;69435;52.670;13.544;2023-08-07T14:39:32;2.80;;;2.17;;
21334;SDS011;69435;52.670;13.544;2023-08-07T14:42:18;4.13;;;2.37;;
21334;SDS011;69435;52.670;13.544;2023-08-07T14:45:04;3.80;;;1.90;;
21334;SDS011;69435;52.670;13.544;2023-08-07T14:47:51;11.33;;;4.33;;
21334;SDS011;69435;52.670;13.544;2023-08-07T14:50:37;3.90;;;2.00;;
21334;SDS011;69435;52.670;13.544;2023-08-07T14:53:23;2.33;;;2.10;;
21334;SDS011;69435;52.670;13.544;2023-08-07T14:56:11;3.23;;;2.27;;
21334;SDS011;69435;52.670;13.544;2023-08-07T14:58:57;3.20;;;1.90;;
21334;SDS011;69435;52.670;13.544;2023-08-07T15:01:44;2.63;;;1.93;;
21334;SDS011;69435;52.670;13.544;2023-08-07T15:04:30;4.33;;;1.87;;
21334;SDS011;69435;52.670;13.544;2023-08-07T15:07:16;6.80;;;2.20;;
21334;SDS011;69435;52.670;13.544;2023-08-07T15:10:02;2.07;;;1.47;;
21334;SDS011;69435;52.670;13.544;2023-08-07T15:12:49;2.87;;;1.70;;
21334;SDS011;69435;52.670;13.544;2023-08-07T15:15:34;7.67;;;1.97;;
21334;SDS011;69435;52.670;13.544;2023-08-07T15:18:21;4.77;;;1.93;;
21334;SDS011;69435;52.670;13.544;2023-08-07T15:21:09;2.73;;;1.37;;
21334;SDS011;69435;52.670;13.544;2023-08-07T15:23:57;2.73;;;1.83;;
21334;SDS011;69435;52.670;13.544;2023-08-07T15:26:43;3.47;;;1.50;;
21334;SDS011;69435;52.670;13.544;2023-08-07T15:29:29;3.53;;;1.23;;
21334;SDS011;69435;52.670;13.544;2023-08-07T15:32:15;2.93;;;1.30;;
21334;SDS011;69435;52.670;13.544;2023-08-07T15:35:04;3.67;;;1.40;;
21334;SDS011;69435;52.670;13.544;2023-08-07T15:37:51;5.60;;;1.40;;
21334;SDS011;69435;52.670;13.544;2023-08-07T15:40:39;1.93;;;1.67;;
21334;SDS011;69435;52.670;13.544;2023-08-07T15:43:26;3.33;;;1.37;;
21334;SDS011;69435;52.670;13.544;2023-08-07T15:46:12;5.73;;;3.10;;
21334;SDS011;69435;52.670;13.544;2023-08-07T15:48:58;7.17;;;1.50;;
21334;SDS011;69435;52.670;13.544;2023-08-07T15:51:44;3.70;;;1.50;;
21334;SDS011;69435;52.670;13.544;2023-08-07T15:54:29;2.57;;;1.23;;
21334;SDS011;69435;52.670;13.544;2023-08-07T15:57:16;5.27;;;1.43;;
21334;SDS011;69435;52.670;13.544;2023-08-07T16:00:02;2.33;;;1.37;;
21334;SDS011;69435;52.670;13.544;2023-08-07T16:02:52;5.07;;;2.00;;
21334;SDS011;69435;52.670;13.544;2023-08-07T16:05:38;2.40;;;1.70;;
21334;SDS011;69435;52.670;13.544;2023-08-07T16:08:24;3.93;;;1.57;;
21334;SDS011;69435;52.670;13.544;2023-08-07T16:11:10;1.73;;;1.63;;
21334;SDS011;69435;52.670;13.544;2023-08-07T16:13:56;2.50;;;1.30;;
21334;SDS011;69435;52.670;13.544;2023-08-07T16:16:43;2.33;;;1.70;;
21334;SDS011;69435;52.670;13.544;2023-08-07T16:19:28;6.60;;;1.43;;
21334;SDS011;69435;52.670;13.544;2023-08-07T16:22:15;3.47;;;2.10;;
21334;SDS011;69435;52.670;13.544;2023-08-07T16:25:02;1.60;;;1.50;;
21334;SDS011;69435;52.670;13.544;2023-08-07T16:27:51;3.03;;;1.40;;
21334;SDS011;69435;52.670;13.544;2023-08-07T16:30:37;3.43;;;1.80;;
21334;SDS011;69435;52.670;13.544;2023-08-07T16:33:23;2.70;;;1.60;;